createdAt,value
2022-08-26T00:01:30.526Z,25.74
2022-08-26T00:04:12.474Z,25.73
2022-08-26T00:14:24.207Z,25.67
2022-08-26T00:17:09.204Z,25.67
2022-08-26T00:19:44.784Z,25.65
2022-08-26T00:22:21.472Z,25.64
2022-08-26T00:24:56.026Z,25.62
2022-08-26T00:27:30.344Z,25.61
2022-08-26T00:30:14.778Z,25.58
2022-08-26T00:43:14.317Z,25.53
2022-08-26T00:46:03.344Z,25.50
2022-08-26T00:48:39.996Z,25.47
2022-08-26T00:51:29.657Z,25.46
2022-08-26T00:54:10.751Z,25.46
2022-08-26T01:07:53.326Z,25.37
2022-08-26T01:10:37.326Z,25.36
2022-08-26T01:13:14.526Z,25.37
2022-08-26T01:16:00.422Z,25.36
2022-08-26T01:18:35.946Z,25.36
2022-08-26T01:21:22.206Z,25.36
2022-08-26T01:23:59.949Z,25.34
2022-08-26T01:36:59.304Z,25.30
2022-08-26T01:39:43.383Z,25.26
2022-08-26T01:42:22.864Z,25.23
2022-08-26T01:45:13.325Z,25.20
2022-08-26T01:47:50.462Z,25.20
2022-08-26T02:01:30.329Z,25.13
2022-08-26T02:04:23.386Z,25.13
2022-08-26T02:07:10.115Z,25.12
2022-08-26T02:09:53.375Z,25.11
2022-08-26T02:12:27.875Z,25.10
2022-08-26T02:15:08.350Z,25.09
2022-08-26T02:28:26.608Z,25.06
2022-08-26T02:31:01.775Z,25.04
2022-08-26T02:33:37.349Z,25.03
2022-08-26T02:36:20.796Z,25.02
2022-08-26T02:39:01.452Z,25.02
2022-08-26T02:41:35.921Z,25.01
2022-08-26T02:44:27.358Z,24.99
2022-08-26T02:54:51.317Z,24.94
2022-08-26T02:57:31.377Z,24.92
2022-08-26T03:00:12.061Z,24.89
2022-08-26T03:02:52.337Z,24.86
2022-08-26T03:05:26.157Z,24.80
2022-08-26T03:21:42.317Z,24.79
2022-08-26T03:24:24.218Z,24.77
2022-08-26T03:26:59.138Z,24.77
2022-08-26T03:29:49.548Z,24.77
2022-08-26T03:32:30.940Z,24.76
2022-08-26T03:35:13.339Z,24.75
2022-08-26T03:48:26.337Z,24.70
2022-08-26T03:51:00.637Z,24.68
2022-08-26T03:53:43.357Z,24.68
2022-08-26T03:56:17.860Z,24.68
2022-08-26T03:58:52.369Z,24.67
2022-08-26T04:01:25.998Z,24.66
2022-08-26T04:04:08.357Z,24.63
2022-08-26T04:17:18.358Z,24.58
2022-08-26T04:19:54.151Z,24.58
2022-08-26T04:22:28.376Z,24.57
2022-08-26T04:25:03.716Z,24.57
2022-08-26T04:27:48.440Z,24.57
2022-08-26T04:30:22.937Z,24.55
2022-08-26T04:43:47.318Z,24.52
2022-08-26T04:46:30.412Z,24.51
2022-08-26T04:49:04.445Z,24.52
2022-08-26T04:51:38.377Z,24.50
2022-08-26T04:54:12.598Z,24.50
2022-08-26T05:10:28.358Z,24.47
2022-08-26T05:13:01.991Z,24.48
2022-08-26T05:15:36.402Z,24.50
2022-08-26T05:18:10.525Z,24.50
2022-08-26T05:20:47.379Z,24.51
2022-08-26T05:23:21.078Z,24.51
2022-08-26T05:36:17.337Z,24.57
2022-08-26T05:39:00.346Z,24.59
2022-08-26T05:41:38.837Z,24.60
2022-08-26T05:44:22.487Z,24.61
2022-08-26T05:46:55.898Z,24.61
2022-08-26T05:49:29.385Z,24.65
2022-08-26T06:02:42.499Z,24.67
2022-08-26T06:05:16.979Z,24.67
2022-08-26T06:07:51.380Z,24.67
2022-08-26T06:10:33.345Z,24.68
2022-08-26T06:13:13.507Z,24.69
2022-08-26T06:29:51.338Z,24.79
2022-08-26T06:32:31.377Z,24.82
2022-08-26T06:35:12.003Z,24.86
2022-08-26T06:37:53.243Z,24.92
2022-08-26T06:40:26.901Z,24.99
2022-08-26T06:43:01.958Z,25.04
2022-08-26T06:56:17.362Z,25.35
2022-08-26T06:58:52.096Z,25.40
2022-08-26T07:01:28.483Z,25.45
2022-08-26T07:04:10.621Z,25.46
2022-08-26T07:06:53.382Z,25.49
2022-08-26T07:09:30.017Z,25.54
2022-08-26T07:22:25.339Z,25.70
2022-08-26T07:25:05.425Z,25.72
2022-08-26T07:27:39.944Z,25.75
2022-08-26T07:30:16.378Z,25.77
2022-08-26T07:32:49.901Z,25.80
2022-08-26T07:35:23.398Z,25.81
2022-08-26T07:49:10.350Z,26.00
2022-08-26T07:51:44.997Z,26.04
2022-08-26T07:54:18.756Z,26.07
2022-08-26T07:56:53.641Z,26.09
2022-08-26T07:59:36.397Z,26.13
2022-08-26T08:02:09.897Z,26.17
2022-08-26T08:04:47.452Z,26.20
2022-08-26T08:18:00.689Z,26.37
2022-08-26T08:20:36.837Z,26.40
2022-08-26T08:23:11.378Z,26.42
2022-08-26T08:25:45.946Z,26.43
2022-08-26T08:28:19.377Z,26.44
2022-08-26T08:45:03.337Z,26.63
2022-08-26T08:47:49.245Z,26.67
2022-08-26T08:50:40.638Z,26.70
2022-08-26T08:53:26.584Z,26.76
2022-08-26T08:56:12.137Z,26.79
2022-08-26T08:59:00.378Z,26.83
2022-08-26T09:09:27.382Z,26.97
2022-08-26T09:12:09.337Z,27.04
2022-08-26T09:14:44.158Z,27.08
2022-08-26T09:17:38.377Z,27.12
2022-08-26T09:20:25.056Z,27.13
2022-08-26T09:23:05.429Z,27.17
2022-08-26T09:36:27.377Z,27.34
2022-08-26T09:39:00.937Z,27.42
2022-08-26T09:41:38.459Z,27.49
2022-08-26T09:44:18.036Z,27.60
2022-08-26T09:47:13.378Z,27.68
2022-08-26T09:50:00.120Z,27.79
2022-08-26T10:02:58.138Z,28.27
2022-08-26T10:05:48.377Z,28.38
2022-08-26T10:08:27.207Z,28.48
2022-08-26T10:11:20.799Z,28.59
2022-08-26T10:14:04.256Z,28.66
2022-08-26T10:16:54.468Z,28.72
2022-08-26T10:19:41.544Z,28.81
2022-08-26T10:29:49.378Z,29.13
2022-08-26T10:32:34.078Z,29.16
2022-08-26T10:35:19.391Z,29.21
2022-08-26T10:38:01.618Z,29.24
2022-08-26T10:40:59.419Z,29.27
2022-08-26T10:43:41.198Z,29.29
2022-08-26T10:56:50.337Z,29.34
2022-08-26T10:59:52.377Z,29.35
2022-08-26T11:02:39.137Z,29.34
2022-08-26T11:05:28.097Z,29.35
2022-08-26T11:08:29.097Z,29.41
2022-08-26T11:25:09.406Z,29.61
2022-08-26T11:28:04.231Z,29.62
2022-08-26T11:30:58.287Z,29.66
2022-08-26T11:33:56.839Z,29.77
2022-08-26T11:37:04.538Z,29.84
2022-08-26T11:39:55.428Z,29.94
2022-08-26T11:52:24.958Z,30.18
2022-08-26T11:55:10.459Z,30.22
2022-08-26T11:57:48.533Z,30.20
2022-08-26T12:00:33.743Z,30.18
2022-08-26T12:03:08.988Z,30.26
2022-08-26T12:16:35.381Z,30.31
2022-08-26T12:19:32.830Z,30.31
2022-08-26T12:22:16.917Z,30.35
2022-08-26T12:25:01.417Z,30.31
2022-08-26T12:27:40.139Z,30.26
2022-08-26T12:30:26.448Z,30.32
2022-08-26T12:43:53.418Z,30.61
2022-08-26T12:46:29.617Z,30.58
2022-08-26T12:49:10.377Z,30.53
2022-08-26T12:51:50.079Z,30.49
2022-08-26T12:54:30.377Z,30.38
2022-08-26T12:57:10.199Z,30.22
2022-08-26T12:59:52.798Z,30.03
2022-08-26T13:10:09.384Z,29.46
2022-08-26T13:12:49.405Z,29.40
2022-08-26T13:15:25.305Z,29.32
2022-08-26T13:17:59.417Z,29.25
2022-08-26T13:20:33.217Z,29.18
2022-08-26T13:23:07.398Z,29.11
2022-08-26T13:25:41.057Z,29.02
2022-08-26T13:38:33.476Z,28.44
2022-08-26T13:41:14.378Z,28.35
2022-08-26T13:43:49.938Z,28.27
2022-08-26T13:46:23.468Z,28.25
2022-08-26T13:49:01.423Z,28.21
2022-08-26T14:05:16.540Z,28.23
2022-08-26T14:07:49.858Z,28.22
2022-08-26T14:10:25.057Z,28.23
2022-08-26T14:13:06.202Z,28.23
2022-08-26T14:15:49.452Z,28.26
2022-08-26T14:18:31.680Z,28.31
2022-08-26T14:31:33.445Z,28.60
2022-08-26T14:34:14.398Z,28.69
2022-08-26T14:36:47.938Z,28.78
2022-08-26T14:39:21.377Z,28.83
2022-08-26T14:41:56.857Z,28.88
2022-08-26T14:44:36.397Z,28.91
2022-08-26T14:57:48.398Z,29.06
2022-08-26T15:00:21.878Z,29.11
2022-08-26T15:02:55.495Z,29.07
2022-08-26T15:05:30.177Z,29.06
2022-08-26T15:08:04.518Z,29.02
2022-08-26T15:10:38.060Z,29.02
2022-08-26T15:24:11.358Z,28.95
2022-08-26T15:26:55.390Z,28.91
2022-08-26T15:29:28.977Z,28.85
2022-08-26T15:32:02.538Z,28.82
2022-08-26T15:34:36.079Z,28.75
2022-08-26T15:37:10.417Z,28.70
2022-08-26T15:39:44.277Z,28.66
2022-08-26T15:52:34.333Z,28.51
2022-08-26T15:55:16.407Z,28.47
2022-08-26T15:57:50.058Z,28.47
2022-08-26T16:00:24.418Z,28.45
2022-08-26T16:02:57.897Z,28.42
2022-08-26T16:05:31.472Z,28.39
2022-08-26T16:18:45.098Z,28.20
2022-08-26T16:21:23.637Z,28.17
2022-08-26T16:24:06.401Z,28.12
2022-08-26T16:26:42.258Z,28.08
2022-08-26T16:29:19.438Z,28.04
2022-08-26T16:46:04.444Z,27.85
2022-08-26T16:48:44.397Z,27.81
2022-08-26T16:51:21.941Z,27.78
2022-08-26T16:54:07.038Z,27.75
2022-08-26T16:56:40.897Z,27.71
2022-08-26T16:59:16.398Z,27.65
2022-08-26T17:12:28.417Z,27.24
2022-08-26T17:15:02.406Z,27.16
2022-08-26T17:17:36.537Z,27.10
2022-08-26T17:20:15.037Z,27.04
2022-08-26T17:23:00.099Z,26.97
2022-08-26T17:25:33.977Z,26.90
2022-08-26T17:38:24.381Z,26.72
2022-08-26T17:41:05.401Z,26.71
2022-08-26T17:43:40.317Z,26.70
2022-08-26T17:46:16.526Z,26.67
2022-08-26T17:48:49.997Z,26.61
2022-08-26T18:05:05.426Z,26.32
2022-08-26T18:07:43.902Z,26.35
2022-08-26T18:10:27.424Z,26.37
2022-08-26T18:13:01.038Z,26.40
2022-08-26T18:15:39.493Z,26.42
2022-08-26T18:18:14.117Z,26.43
2022-08-26T18:20:54.095Z,26.43
2022-08-26T18:31:14.480Z,26.46
2022-08-26T18:33:54.379Z,26.41
2022-08-26T18:36:33.237Z,26.35
2022-08-26T18:39:16.418Z,26.31
2022-08-26T18:41:51.897Z,26.18
2022-08-26T18:44:27.423Z,26.15
2022-08-26T18:57:59.478Z,26.06
2022-08-26T19:00:32.921Z,26.05
2022-08-26T19:03:06.500Z,26.03
2022-08-26T19:05:52.678Z,26.03
2022-08-26T19:08:26.478Z,26.02
2022-08-26T19:11:00.482Z,25.99
2022-08-26T19:13:36.610Z,25.97
2022-08-26T19:26:49.299Z,25.88
2022-08-26T19:29:29.881Z,25.83
2022-08-26T19:32:12.382Z,25.84
2022-08-26T19:34:46.158Z,25.81
2022-08-26T19:37:19.437Z,25.80
2022-08-26T19:39:53.306Z,25.78
2022-08-26T19:52:43.337Z,25.71
2022-08-26T19:55:26.460Z,25.68
2022-08-26T19:57:59.938Z,25.61
2022-08-26T20:00:36.458Z,25.54
2022-08-26T20:03:10.732Z,25.50
2022-08-26T20:05:56.723Z,25.48
2022-08-26T20:19:16.438Z,25.39
2022-08-26T20:21:49.998Z,25.35
2022-08-26T20:24:25.398Z,25.34
2022-08-26T20:26:58.938Z,25.36
2022-08-26T20:29:34.261Z,25.35
2022-08-26T20:32:08.390Z,25.32
2022-08-26T20:34:45.358Z,25.31
2022-08-26T20:45:00.358Z,25.27
2022-08-26T20:47:40.438Z,25.23
2022-08-26T20:50:15.897Z,25.22
2022-08-26T20:52:49.401Z,25.20
2022-08-26T20:55:22.898Z,25.19
2022-08-26T20:57:56.397Z,25.18
2022-08-26T21:00:31.958Z,25.18
2022-08-26T21:13:22.378Z,25.04
2022-08-26T21:16:03.552Z,25.01
2022-08-26T21:18:38.363Z,24.99
2022-08-26T21:21:14.397Z,24.96
2022-08-26T21:23:53.097Z,24.98
2022-08-26T21:40:17.943Z,24.87
2022-08-26T21:42:51.937Z,24.87
2022-08-26T21:45:26.465Z,24.87
2022-08-26T21:47:59.958Z,24.86
2022-08-26T21:50:33.417Z,24.85
2022-08-26T21:53:11.757Z,24.81
2022-08-26T21:55:47.417Z,24.79
2022-08-26T22:05:32.376Z,24.68
2022-08-26T22:08:12.417Z,24.65
2022-08-26T22:10:48.558Z,24.61
2022-08-26T22:13:22.418Z,24.63
2022-08-26T22:15:58.279Z,24.62
2022-08-26T22:18:34.467Z,24.61
2022-08-26T22:32:01.509Z,24.53
2022-08-26T22:34:34.917Z,24.48
2022-08-26T22:37:08.578Z,24.44
2022-08-26T22:39:41.965Z,24.41
2022-08-26T22:42:16.425Z,24.40
2022-08-26T22:44:49.958Z,24.42
2022-08-26T23:01:05.430Z,24.26
2022-08-26T23:03:39.162Z,24.19
2022-08-26T23:06:15.465Z,24.17
2022-08-26T23:08:49.017Z,24.18
2022-08-26T23:13:54.737Z,24.20
2022-08-26T23:26:47.357Z,24.15
2022-08-26T23:29:30.457Z,24.13
2022-08-26T23:32:04.626Z,24.11
2022-08-26T23:34:38.437Z,24.10
2022-08-26T23:37:13.337Z,24.10
2022-08-26T23:39:48.280Z,24.10
2022-08-26T23:53:00.416Z,24.09
2022-08-26T23:55:35.517Z,24.08
2022-08-26T23:58:09.496Z,24.06
